createdAt,value
2019-03-19T00:02:21.163Z,3.83
2019-03-19T00:05:24.200Z,6.72
2019-03-19T00:08:27.255Z,6.97
2019-03-19T00:11:30.282Z,6.62
2019-03-19T00:14:34.090Z,5.90
2019-03-19T00:17:37.128Z,6.58
2019-03-19T00:20:40.171Z,6.08
2019-03-19T00:23:43.207Z,2.80
2019-03-19T00:26:46.248Z,5.92
2019-03-19T00:29:49.039Z,5.97
2019-03-19T00:32:51.820Z,6.30
2019-03-19T00:35:54.601Z,6.35
2019-03-19T00:38:57.396Z,6.05
2019-03-19T00:42:00.167Z,4.12
2019-03-19T00:45:03.208Z,2.75
2019-03-19T00:48:05.998Z,5.85
2019-03-19T00:51:08.781Z,6.85
2019-03-19T00:54:11.566Z,6.87
2019-03-19T00:57:14.608Z,6.85
2019-03-19T01:00:17.397Z,7.35
2019-03-19T01:03:20.170Z,6.45
2019-03-19T01:06:22.951Z,6.60
2019-03-19T01:09:26.248Z,6.65
2019-03-19T01:12:29.033Z,6.53
2019-03-19T01:15:31.815Z,5.90
2019-03-19T01:18:28.998Z,5.50
2019-03-19T01:21:32.009Z,6.05
2019-03-19T01:24:34.792Z,6.70
2019-03-19T01:27:37.831Z,6.67
2019-03-19T01:30:40.616Z,6.62
2019-03-19T01:33:44.422Z,3.62
2019-03-19T01:36:47.212Z,5.87
2019-03-19T01:39:49.991Z,6.80
2019-03-19T01:42:53.033Z,7.15
2019-03-19T01:45:55.816Z,6.70
2019-03-19T01:48:58.601Z,6.25
2019-03-19T01:52:01.645Z,6.85
2019-03-19T01:55:04.426Z,6.53
2019-03-19T01:58:07.986Z,4.72
2019-03-19T02:01:11.015Z,4.72
2019-03-19T02:04:13.801Z,6.53
2019-03-19T02:07:16.841Z,5.90
2019-03-19T02:10:19.879Z,5.45
2019-03-19T02:13:22.920Z,6.42
2019-03-19T02:16:25.446Z,5.87
2019-03-19T02:19:27.977Z,7.00
2019-03-19T02:22:31.015Z,3.58
2019-03-19T02:25:34.057Z,6.47
2019-03-19T02:28:36.840Z,6.37
2019-03-19T02:31:40.141Z,6.22
2019-03-19T02:34:43.432Z,5.60
2019-03-19T02:37:46.218Z,6.72
2019-03-19T02:40:49.000Z,5.12
2019-03-19T02:43:51.791Z,7.05
2019-03-19T02:46:54.825Z,5.03
2019-03-19T02:49:57.867Z,3.95
2019-03-19T02:53:00.649Z,6.72
2019-03-19T02:56:03.688Z,7.37
2019-03-19T02:59:00.905Z,3.60
2019-03-19T03:02:03.882Z,7.37
2019-03-19T03:05:06.668Z,4.92
2019-03-19T03:08:09.454Z,2.52
2019-03-19T03:11:08.619Z,3.05
2019-03-19T03:14:11.689Z,5.87
2019-03-19T03:17:14.473Z,4.42
2019-03-19T03:20:17.527Z,7.28
2019-03-19T03:23:20.812Z,7.15
2019-03-19T03:26:23.873Z,6.62
2019-03-19T03:29:26.894Z,6.00
2019-03-19T03:32:29.944Z,6.87
2019-03-19T03:35:32.967Z,3.00
2019-03-19T03:38:35.753Z,6.33
2019-03-19T03:41:39.049Z,2.77
2019-03-19T03:44:41.831Z,2.50
2019-03-19T03:47:44.618Z,3.17
2019-03-19T03:50:50.215Z,2.90
2019-03-19T03:53:53.005Z,3.37
2019-03-19T03:57:01.761Z,3.65
2019-03-19T03:59:56.008Z,6.45
2019-03-19T04:03:02.639Z,6.95
2019-03-19T04:06:05.942Z,6.00
2019-03-19T04:09:09.480Z,5.28
2019-03-19T04:12:11.752Z,5.72
2019-03-19T04:15:10.868Z,6.35
2019-03-19T04:18:13.735Z,6.72
2019-03-19T04:21:17.547Z,3.08
2019-03-19T04:24:20.838Z,6.83
2019-03-19T04:27:23.882Z,7.08
2019-03-19T04:30:26.919Z,4.22
2019-03-19T04:33:30.983Z,4.15
2019-03-19T04:36:34.281Z,5.30
2019-03-19T04:39:37.323Z,7.70
2019-03-19T04:42:40.616Z,7.17
2019-03-19T04:45:43.663Z,8.08
2019-03-19T04:48:46.441Z,3.98
2019-03-19T04:51:49.480Z,6.95
2019-03-19T04:54:53.799Z,8.08
2019-03-19T04:57:54.158Z,6.78
2019-03-19T05:00:57.063Z,3.52
2019-03-19T05:04:01.131Z,6.60
2019-03-19T05:07:03.912Z,4.53
2019-03-19T05:10:06.697Z,7.87
2019-03-19T05:13:05.898Z,7.22
2019-03-19T05:16:08.936Z,5.72
2019-03-19T05:19:18.636Z,8.03
2019-03-19T05:22:22.185Z,7.05
2019-03-19T05:25:24.970Z,7.10
2019-03-19T05:28:27.752Z,4.55
2019-03-19T05:31:30.791Z,6.95
2019-03-19T05:34:33.831Z,3.58
2019-03-19T05:37:36.615Z,3.08
2019-03-19T05:40:39.402Z,6.87
2019-03-19T05:43:42.440Z,3.75
2019-03-19T05:46:45.229Z,3.50
2019-03-19T05:49:48.264Z,2.90
2019-03-19T05:52:52.332Z,7.12
2019-03-19T05:55:55.372Z,6.60
2019-03-19T05:58:58.153Z,7.50
2019-03-19T06:02:00.941Z,6.15
2019-03-19T06:05:04.005Z,6.53
2019-03-19T06:08:07.783Z,7.37
2019-03-19T06:11:10.827Z,7.62
2019-03-19T06:14:14.380Z,7.55
2019-03-19T06:17:17.676Z,7.42
2019-03-19T06:20:16.933Z,5.40
2019-03-19T06:23:20.169Z,7.47
2019-03-19T06:26:23.210Z,8.27
2019-03-19T06:29:26.506Z,7.58
2019-03-19T06:32:29.545Z,6.72
2019-03-19T06:35:32.584Z,5.30
2019-03-19T06:38:35.370Z,3.37
2019-03-19T06:41:38.151Z,2.65
2019-03-19T06:44:42.988Z,3.30
2019-03-19T06:47:53.231Z,3.02
2019-03-19T06:50:56.233Z,3.45
2019-03-19T06:53:59.016Z,3.52
2019-03-19T06:57:02.056Z,2.75
2019-03-19T07:00:05.096Z,6.35
2019-03-19T07:03:07.879Z,8.45
2019-03-19T07:06:10.920Z,6.40
2019-03-19T07:09:13.958Z,3.62
2019-03-19T07:12:17.257Z,9.58
2019-03-19T07:15:20.301Z,8.38
2019-03-19T07:18:23.849Z,4.83
2019-03-19T07:21:26.637Z,10.25
2019-03-19T07:24:29.672Z,9.43
2019-03-19T07:27:32.716Z,9.28
2019-03-19T07:30:36.007Z,5.10
2019-03-19T07:33:39.047Z,7.55
2019-03-19T07:36:42.345Z,6.62
2019-03-19T07:39:45.128Z,8.13
2019-03-19T07:42:48.180Z,7.78
2019-03-19T07:45:51.465Z,5.62
2019-03-19T07:48:54.501Z,5.10
2019-03-19T07:51:57.543Z,5.00
2019-03-19T07:55:00.329Z,7.12
2019-03-19T07:58:03.116Z,4.20
2019-03-19T08:01:05.896Z,4.17
2019-03-19T08:04:08.935Z,4.05
2019-03-19T08:07:12.237Z,4.25
2019-03-19T08:10:15.017Z,5.22
2019-03-19T08:13:17.799Z,4.30
2019-03-19T08:16:27.447Z,7.05
2019-03-19T08:19:24.135Z,5.80
2019-03-19T08:22:26.923Z,4.45
2019-03-19T08:25:32.778Z,4.70
2019-03-19T08:28:35.819Z,5.53
2019-03-19T08:31:39.112Z,7.35
2019-03-19T08:34:41.898Z,6.12
2019-03-19T08:37:44.937Z,5.25
2019-03-19T08:40:47.976Z,7.80
2019-03-19T08:43:52.575Z,7.28
2019-03-19T08:46:53.801Z,6.05
2019-03-19T08:49:56.840Z,6.97
2019-03-19T08:52:56.139Z,4.00
2019-03-19T08:56:01.067Z,6.12
2019-03-19T08:59:09.550Z,6.62
2019-03-19T09:02:12.583Z,8.08
2019-03-19T09:05:15.117Z,8.70
2019-03-19T09:09:40.074Z,7.35
2019-03-19T09:12:42.858Z,4.78
2019-03-19T09:15:45.639Z,3.72
2019-03-19T09:18:48.423Z,3.42
2019-03-19T09:21:51.207Z,3.98
2019-03-19T09:24:58.601Z,3.37
2019-03-19T09:28:01.895Z,3.55
2019-03-19T09:31:06.985Z,3.27
2019-03-19T09:34:09.767Z,2.87
2019-03-19T09:37:12.551Z,2.58
2019-03-19T09:40:15.591Z,2.47
2019-03-19T09:43:18.378Z,2.22
2019-03-19T09:46:21.158Z,2.05
2019-03-19T09:49:21.171Z,2.00
2019-03-19T09:52:33.642Z,2.10
2019-03-19T09:55:46.663Z,1.82
2019-03-19T09:58:59.688Z,1.85
2019-03-19T10:02:12.455Z,2.02
2019-03-19T10:05:25.480Z,2.58
2019-03-19T10:08:38.776Z,1.42
2019-03-19T10:11:52.041Z,2.10
2019-03-19T10:15:05.067Z,1.35
2019-03-19T10:18:17.835Z,2.20
2019-03-19T10:21:30.855Z,1.52
2019-03-19T10:24:38.058Z,1.87
2019-03-19T10:27:51.276Z,1.65
2019-03-19T10:31:04.039Z,1.50
2019-03-19T10:34:17.320Z,1.80
2019-03-19T10:37:30.345Z,1.77
2019-03-19T10:40:43.371Z,1.50
2019-03-19T10:43:56.394Z,1.60
2019-03-19T10:47:09.157Z,1.57
2019-03-19T10:50:21.926Z,1.27
2019-03-19T10:53:37.513Z,1.02
2019-03-19T10:56:50.285Z,1.30
2019-03-19T11:00:04.327Z,1.32
2019-03-19T11:03:17.350Z,0.90
2019-03-19T11:06:30.377Z,1.20
2019-03-19T11:09:43.408Z,1.27
2019-03-19T11:12:56.428Z,1.82
2019-03-19T11:16:09.448Z,1.67
2019-03-19T11:19:22.732Z,1.07
2019-03-19T11:22:35.760Z,0.80
2019-03-19T11:25:54.556Z,1.00
2019-03-19T11:29:01.543Z,0.93
2019-03-19T11:32:14.566Z,0.90
2019-03-19T11:35:23.720Z,1.30
2019-03-19T11:38:36.519Z,1.30
2019-03-19T11:41:49.542Z,0.80
2019-03-19T11:45:02.569Z,0.72
2019-03-19T11:48:15.336Z,0.90
2019-03-19T11:51:28.362Z,0.93
2019-03-19T11:54:41.386Z,0.93
2019-03-19T11:57:54.408Z,1.00
2019-03-19T12:01:07.176Z,1.25
2019-03-19T12:04:19.944Z,0.80
2019-03-19T12:07:33.221Z,1.07
2019-03-19T12:10:46.246Z,0.88
2019-03-19T12:13:59.271Z,0.80
2019-03-19T12:17:12.041Z,0.60
2019-03-19T12:20:25.325Z,0.70
2019-03-19T12:23:38.602Z,0.90
2019-03-19T12:26:51.380Z,0.70
2019-03-19T12:30:07.650Z,0.82
2019-03-19T12:33:17.414Z,0.95
2019-03-19T12:36:30.695Z,0.85
2019-03-19T12:39:43.464Z,0.90
2019-03-19T12:42:56.744Z,0.70
2019-03-19T12:46:09.512Z,0.80
2019-03-19T12:49:22.535Z,0.70
2019-03-19T12:52:35.813Z,0.60
2019-03-19T12:55:48.584Z,0.60
2019-03-19T12:59:01.612Z,0.80
2019-03-19T13:02:14.886Z,0.85
2019-03-19T13:05:24.052Z,0.70
2019-03-19T13:08:37.097Z,0.70
2019-03-19T13:11:50.120Z,0.60
2019-03-19T13:15:02.898Z,0.90
2019-03-19T13:18:15.913Z,0.65
2019-03-19T13:21:28.934Z,1.02
2019-03-19T13:24:41.715Z,0.80
2019-03-19T13:27:56.010Z,0.62
2019-03-19T13:31:09.286Z,0.80
2019-03-19T13:34:22.314Z,0.80
2019-03-19T13:37:35.337Z,0.72
2019-03-19T13:40:48.361Z,0.90
2019-03-19T13:44:01.129Z,0.80
2019-03-19T13:47:14.411Z,0.80
2019-03-19T13:50:27.177Z,1.00
2019-03-19T13:53:39.943Z,0.90
2019-03-19T13:56:53.226Z,0.93
2019-03-19T14:00:05.997Z,0.70
2019-03-19T14:03:19.019Z,1.00
2019-03-19T14:06:32.294Z,0.80
2019-03-19T14:09:45.320Z,0.57
2019-03-19T14:12:58.346Z,0.90
2019-03-19T14:16:11.367Z,0.85
2019-03-19T14:19:24.392Z,1.00
2019-03-19T14:22:38.184Z,1.10
2019-03-19T14:25:51.208Z,0.72
2019-03-19T14:29:03.980Z,0.80
2019-03-19T14:32:14.292Z,0.70
2019-03-19T14:35:36.812Z,0.85
2019-03-19T14:38:47.163Z,0.60
2019-03-19T14:41:53.000Z,0.65
2019-03-19T14:45:05.769Z,1.00
2019-03-19T14:48:18.795Z,0.70
2019-03-19T14:51:31.817Z,0.75
2019-03-19T14:54:44.846Z,0.70
2019-03-19T14:57:57.867Z,0.72
2019-03-19T15:01:19.195Z,1.00
2019-03-19T15:04:24.680Z,0.80
2019-03-19T15:07:37.455Z,0.60
2019-03-19T15:10:50.984Z,0.60
2019-03-19T15:14:04.268Z,1.65
2019-03-19T15:17:13.576Z,0.68
2019-03-19T15:20:26.726Z,0.50
2019-03-19T15:23:39.751Z,1.32
2019-03-19T15:27:00.714Z,0.62
2019-03-19T15:30:13.738Z,0.60
2019-03-19T15:33:26.761Z,0.60
2019-03-19T15:36:36.208Z,0.70
2019-03-19T15:39:49.234Z,0.60
2019-03-19T15:43:02.268Z,0.75
2019-03-19T15:46:15.527Z,0.78
2019-03-19T15:49:37.881Z,0.47
2019-03-19T15:52:41.576Z,1.07
2019-03-19T15:55:54.347Z,0.82
2019-03-19T15:59:07.111Z,1.00
2019-03-19T16:02:20.134Z,1.10
2019-03-19T16:05:33.421Z,0.78
2019-03-19T16:08:46.448Z,0.60
2019-03-19T16:12:00.487Z,0.80
2019-03-19T16:15:13.514Z,0.85
2019-03-19T16:18:26.279Z,0.85
2019-03-19T16:21:40.329Z,0.68
2019-03-19T16:24:54.632Z,1.00
2019-03-19T16:28:07.397Z,1.20
2019-03-19T16:31:27.336Z,1.22
2019-03-19T16:34:40.102Z,0.90
2019-03-19T16:37:53.387Z,0.78
2019-03-19T16:41:06.151Z,0.78
2019-03-19T16:44:19.943Z,0.90
2019-03-19T16:47:33.737Z,0.90
2019-03-19T16:50:47.021Z,0.80
2019-03-19T16:54:00.040Z,0.93
2019-03-19T16:57:13.067Z,1.15
2019-03-19T17:00:26.351Z,1.22
2019-03-19T17:03:35.567Z,0.80
2019-03-19T17:06:48.553Z,1.30
2019-03-19T17:10:01.062Z,0.93
2019-03-19T17:13:15.113Z,1.02
2019-03-19T17:16:28.143Z,0.90
2019-03-19T17:19:41.938Z,0.90
2019-03-19T17:22:57.136Z,0.70
2019-03-19T17:26:07.973Z,1.10
2019-03-19T17:29:20.999Z,0.80
2019-03-19T17:32:33.771Z,0.98
2019-03-19T17:35:46.536Z,0.90
2019-03-19T17:38:59.559Z,0.70
2019-03-19T17:42:12.333Z,0.80
2019-03-19T17:45:21.318Z,1.00
2019-03-19T17:48:34.283Z,1.17
2019-03-19T17:51:48.598Z,1.17
2019-03-19T17:55:01.351Z,1.07
2019-03-19T17:58:14.375Z,1.35
2019-03-19T18:01:27.142Z,1.22
2019-03-19T18:04:40.165Z,1.60
2019-03-19T18:07:52.934Z,0.85
2019-03-19T18:11:07.238Z,1.40
2019-03-19T18:14:20.008Z,1.30
2019-03-19T18:17:34.311Z,1.50
2019-03-19T18:20:47.414Z,1.60
2019-03-19T18:24:00.111Z,1.80
2019-03-19T18:27:13.128Z,1.80
2019-03-19T18:30:26.150Z,2.22
2019-03-19T18:33:40.201Z,2.22
2019-03-19T18:36:53.226Z,1.95
2019-03-19T18:40:05.990Z,1.82
2019-03-19T18:43:27.469Z,2.10
2019-03-19T18:46:40.488Z,1.95
2019-03-19T18:49:53.767Z,2.05
2019-03-19T18:53:07.050Z,2.45
2019-03-19T18:56:20.328Z,2.45
2019-03-19T18:59:33.098Z,2.70
2019-03-19T19:02:50.214Z,2.40
2019-03-19T19:05:58.885Z,2.22
2019-03-19T19:09:11.911Z,2.00
2019-03-19T19:12:25.447Z,2.90
2019-03-19T19:15:39.495Z,3.20
2019-03-19T19:18:52.263Z,3.58
2019-03-19T19:22:06.054Z,4.17
2019-03-19T19:25:19.079Z,4.30
2019-03-19T19:28:31.846Z,2.45
2019-03-19T19:31:45.127Z,2.45
2019-03-19T19:34:58.406Z,2.20
2019-03-19T19:38:11.174Z,2.20
2019-03-19T19:41:25.223Z,3.25
2019-03-19T19:44:41.064Z,2.98
2019-03-19T19:47:50.244Z,5.10
2019-03-19T19:51:03.528Z,4.60
2019-03-19T19:54:16.553Z,3.95
2019-03-19T19:57:29.322Z,4.58
2019-03-19T20:00:42.342Z,5.05
2019-03-19T20:03:55.371Z,5.50
2019-03-19T20:07:09.158Z,4.87
2019-03-19T20:10:22.185Z,5.78
2019-03-19T20:13:35.219Z,5.55
2019-03-19T20:16:48.491Z,3.30
2019-03-19T20:20:01.516Z,3.10
2019-03-19T20:23:14.795Z,3.30
2019-03-19T20:26:27.817Z,5.62
2019-03-19T20:29:40.839Z,3.27
2019-03-19T20:32:53.611Z,5.28
2019-03-19T20:36:07.658Z,4.95
2019-03-19T20:39:23.495Z,4.80
2019-03-19T20:42:36.525Z,5.35
2019-03-19T20:45:49.290Z,5.12
2019-03-19T20:49:02.313Z,4.67
2019-03-19T20:52:15.338Z,4.42
2019-03-19T20:55:28.361Z,5.40
2019-03-19T20:58:43.738Z,4.10
2019-03-19T21:01:54.925Z,5.12
2019-03-19T21:05:07.688Z,4.00
2019-03-19T21:08:20.715Z,6.08
2019-03-19T21:11:34.503Z,4.80
2019-03-19T21:14:47.279Z,5.20
2019-03-19T21:18:00.550Z,3.12
2019-03-19T21:21:13.319Z,5.00
2019-03-19T21:24:26.356Z,2.85
2019-03-19T21:27:39.367Z,5.00
2019-03-19T21:30:54.346Z,6.78
2019-03-19T21:34:05.167Z,3.55
2019-03-19T21:37:18.183Z,5.97
2019-03-19T21:40:30.954Z,7.37
2019-03-19T21:43:43.803Z,6.35
2019-03-19T21:46:57.770Z,5.08
2019-03-19T21:50:10.791Z,4.55
2019-03-19T21:53:23.820Z,6.90
2019-03-19T21:56:36.583Z,3.77
2019-03-19T21:59:49.349Z,2.90
2019-03-19T22:03:02.118Z,3.40
2019-03-19T22:06:16.490Z,3.15
2019-03-19T22:09:28.431Z,3.90
2019-03-19T22:12:41.705Z,3.50
2019-03-19T22:15:55.494Z,2.80
2019-03-19T22:19:08.519Z,6.47
2019-03-19T22:22:21.799Z,7.97
2019-03-19T22:25:31.212Z,6.60
2019-03-19T22:28:44.267Z,7.53
2019-03-19T22:31:57.036Z,7.00
2019-03-19T22:35:10.312Z,7.50
2019-03-19T22:38:23.086Z,7.22
2019-03-19T22:41:35.849Z,8.65
2019-03-19T22:44:49.128Z,9.00
2019-03-19T22:48:01.899Z,9.30
2019-03-19T22:51:14.924Z,9.18
2019-03-19T22:54:27.948Z,9.30
2019-03-19T22:57:40.718Z,9.00
2019-03-19T23:00:53.993Z,8.48
2019-03-19T23:04:06.761Z,8.40
2019-03-19T23:07:19.792Z,9.28
2019-03-19T23:10:33.064Z,8.75
2019-03-19T23:13:46.090Z,9.05
2019-03-19T23:16:59.112Z,5.12
2019-03-19T23:20:12.144Z,4.20
2019-03-19T23:23:24.905Z,8.83
2019-03-19T23:26:37.927Z,8.80
2019-03-19T23:29:50.704Z,7.87
2019-03-19T23:33:03.467Z,8.43
2019-03-19T23:36:17.512Z,7.70
2019-03-19T23:39:30.282Z,7.90
2019-03-19T23:42:43.048Z,8.33
2019-03-19T23:45:56.071Z,7.80
2019-03-19T23:49:09.096Z,5.72
2019-03-19T23:52:21.864Z,4.95
2019-03-19T23:55:35.143Z,7.45
2019-03-19T23:58:47.912Z,7.95
